M I D A S
Marine Information and Data Acquisition System
Tripno 1213 of the Zeeleeuw from 2007-02-19 08:25:30 to 2007-02-19 16:47:37
Back to CruiseResearch ActivitiesStationsMapUnderway DataData graphs

EquipmentUnitsComment
TimeDGPSUTC
LatitudeDGPSDM.mWGS84
LongitudeDGPSDM.mWGS84
HeadingGyrodeg 
SOGDGPSknotsSpeed over ground
COGDGPSdegCourse over ground
DepthEcho soundermeters200 kHz
Missing or incorrect values are displayed as -999
Navigation data collected by the RV Zeeleeuw from 2007-02-19 08:29:15 to 2007-02-19 16:56:02
Time Latitude Longitude Heading SOG COG Depth
2007-02-19 08:30:24 51°13.611 2°56.043 114.6 3.1 293 -999
2007-02-19 08:31:24 51°13.641 2°55.95 126.4 4.4 302 -999
2007-02-19 08:32:24 51°13.688 2°55.851 131.7 4.7 309 -999
2007-02-19 08:33:24 51°13.727 2°55.761 120.1 3.6 298 10.3
2007-02-19 08:34:21 51°13.745 2°55.694 100.2 1.9 292 9.3
2007-02-19 08:35:21 51°13.754 2°55.684 58.7 0.5 308 9.4
2007-02-19 08:36:21 51°13.756 2°55.668 23.2 1.1 355 9.5
2007-02-19 08:37:21 51°13.806 2°55.641 342.7 5.7 339 9.5
2007-02-19 08:38:21 51°13.924 2°55.562 342.5 8.7 339 9.2
2007-02-19 08:39:21 51°14.067 2°55.48 341.8 9.2 337 9.4
2007-02-19 08:40:21 51°14.201 2°55.364 328.7 9.1 324 9.7
2007-02-19 08:41:24 51°14.31 2°55.18 310.6 9.1 306 10.1
2007-02-19 08:42:21 51°14.401 2°54.978 306.4 10.9 297 8.9
2007-02-19 08:43:21 51°14.448 2°54.684 276.2 11.9 270 9.6
2007-02-19 08:44:21 51°14.386 2°54.388 241.4 12 238 7.8
2007-02-19 08:45:21 51°14.281 2°54.113 242.3 12.2 239 7.5
2007-02-19 08:46:21 51°14.175 2°53.832 242.2 12.4 239 7.5
2007-02-19 08:47:21 51°14.068 2°53.549 242.6 12.5 239 7.8
2007-02-19 08:48:21 51°13.962 2°53.264 242.5 12.6 240 8
2007-02-19 08:49:21 51°13.855 2°52.975 243.1 12.7 240 8.2
2007-02-19 08:50:21 51°13.746 2°52.676 243.6 13.9 240 8.3
2007-02-19 08:51:21 51°13.623 2°52.347 241.9 14.7 239 8.4
2007-02-19 08:52:21 51°13.502 2°52.004 246.6 14.9 243 8.6
2007-02-19 08:53:21 51°13.383 2°51.656 244.2 15 240 8.7
2007-02-19 08:54:21 51°13.267 2°51.304 245 15.1 242 8.8
2007-02-19 08:55:21 51°13.147 2°50.953 246.7 15.1 243 9
2007-02-19 08:56:21 51°13.029 2°50.599 244.7 15.1 242 9.1
2007-02-19 08:57:21 51°12.912 2°50.243 246.2 15.2 243 9.4
2007-02-19 08:58:21 51°12.792 2°49.888 245 15.3 242 9.5
2007-02-19 08:59:21 51°12.673 2°49.53 244.7 15.3 242 9.7
2007-02-19 09:00:21 51°12.553 2°49.171 245 15.4 242 9.9
2007-02-19 09:01:21 51°12.432 2°48.811 245 15.3 241 10
2007-02-19 09:02:21 51°12.312 2°48.455 245.2 15.3 242 10.1
2007-02-19 09:03:21 51°12.191 2°48.098 245.6 15.3 243 10.2
2007-02-19 09:04:21 51°12.081 2°47.731 248.8 15.3 245 10.3
2007-02-19 09:05:21 51°11.973 2°47.365 248.8 15.3 245 10.5
2007-02-19 09:06:21 51°11.864 2°46.999 248.8 15.3 245 10.5
2007-02-19 09:07:21 51°11.756 2°46.633 247.7 15.3 245 10.6
2007-02-19 09:08:21 51°11.648 2°46.266 248.6 15.3 245 10.6
2007-02-19 09:09:21 51°11.543 2°45.898 251.1 15.2 248 10.5
2007-02-19 09:10:21 51°11.447 2°45.525 251.9 15.1 248 10.5
2007-02-19 09:11:21 51°11.351 2°45.154 251.1 15.1 247 10.4
2007-02-19 09:12:21 51°11.257 2°44.782 253.4 15.1 249 10.4
2007-02-19 09:13:21 51°11.172 2°44.405 255.8 15.1 252 10.3
2007-02-19 09:14:21 51°11.092 2°44.025 255.5 15.1 252 10.4
2007-02-19 09:15:21 51°11.013 2°43.645 255.9 15.1 252 10.4
2007-02-19 09:16:21 51°10.936 2°43.265 256.6 15.1 252 10.5
2007-02-19 09:17:21 51°10.859 2°42.884 256.1 15.1 252 10.5
2007-02-19 09:18:21 51°10.782 2°42.504 256.4 15.1 252 10.5
2007-02-19 09:19:21 51°10.706 2°42.123 256.7 15.1 252 10.6
2007-02-19 09:20:21 51°10.659 2°41.784 284.5 9.7 284 11
2007-02-19 09:21:21 51°10.722 2°41.664 354.3 4.2 334 11.5
2007-02-19 09:22:21 51°10.784 2°41.66 32 4.8 21 11.5
2007-02-19 09:23:21 51°10.862 2°41.749 30.8 5.8 18 11.7
2007-02-19 09:24:21 51°10.929 2°41.814 57.4 4.2 51 11.7
2007-02-19 09:25:21 51°10.983 2°41.879 40 4.1 32 11.6
2007-02-19 09:26:21 51°11.03 2°41.953 55.4 4 47 11.5
2007-02-19 09:27:21 51°11.075 2°42.027 60.3 3.6 52 11.4
2007-02-19 09:28:21 51°11.111 2°42.075 41.6 1.7 14 11.3
2007-02-19 09:29:21 51°11.115 2°42.06 20.6 0.8 281 11.3
2007-02-19 09:30:21 51°11.118 2°42.037 15.2 0.9 283 11.3
2007-02-19 09:31:21 51°11.123 2°42.012 18.7 0.9 283 11.3
2007-02-19 09:32:21 51°11.126 2°41.988 26.8 0.9 280 11.2
2007-02-19 09:33:21 51°11.127 2°41.966 34.8 0.8 270 11.2
2007-02-19 09:34:21 51°11.127 2°41.945 44.1 0.8 265 11.2
2007-02-19 09:35:21 51°11.13 2°41.934 46.7 1 13 11.3
2007-02-19 09:36:21 51°11.18 2°41.886 314.2 5.6 294 11.2
2007-02-19 09:37:21 51°11.161 2°41.68 259.9 10.7 253 11.1
2007-02-19 09:38:21 51°11.073 2°41.356 249.5 14.4 245 11.3
2007-02-19 09:39:21 51°10.973 2°41.004 250.6 14.6 246 11.7
2007-02-19 09:40:21 51°10.876 2°40.647 252.7 14.7 249 12.2
2007-02-19 09:41:21 51°10.809 2°40.273 262 14.7 257 12.7
2007-02-19 09:42:21 51°10.752 2°39.893 262.2 14.8 256 13.4
2007-02-19 09:43:21 51°10.693 2°39.512 262.3 14.9 256 14
2007-02-19 09:44:21 51°10.634 2°39.129 261.7 14.9 256 15.2
2007-02-19 09:45:21 51°10.577 2°38.748 262.2 14.8 256 16.2
2007-02-19 09:46:21 51°10.522 2°38.368 262.3 14.6 257 17
2007-02-19 09:47:21 51°10.471 2°37.992 265.5 14.4 259 17.1
2007-02-19 09:48:21 51°10.438 2°37.616 268.7 14.3 263 16.7
2007-02-19 09:49:21 51°10.419 2°37.238 271.7 14.3 266 15.5
2007-02-19 09:50:21 51°10.431 2°36.866 285.9 13.9 280 11.3
2007-02-19 09:51:21 51°10.527 2°36.56 322.8 12.7 317 8.2
2007-02-19 09:52:21 51°10.725 2°36.493 14.9 12.5 9 9.6
2007-02-19 09:53:21 51°10.931 2°36.561 18.4 12.7 10 11
2007-02-19 09:54:21 51°11.139 2°36.614 16.6 12.7 8 11.6
2007-02-19 09:55:21 51°11.348 2°36.656 15.4 12.7 7 11.3
2007-02-19 09:56:21 51°11.556 2°36.709 17.5 12.6 10 10.7
2007-02-19 09:57:21 51°11.763 2°36.759 16.6 12.6 9 9.7
2007-02-19 09:58:21 51°11.972 2°36.807 16 12.6 8 9.2
2007-02-19 09:59:21 51°12.178 2°36.871 19 12.6 10 9.3
2007-02-19 10:00:21 51°12.385 2°36.931 18.3 12.7 11 9.4
2007-02-19 10:01:21 51°12.593 2°36.993 19.1 12.6 10 9.2
2007-02-19 10:02:21 51°12.8 2°37.052 18.7 12.7 12 8.4
2007-02-19 10:03:21 51°13.003 2°37.116 18.5 12.5 11 8.1
2007-02-19 10:04:21 51°13.21 2°37.176 18.8 12.6 12 8.1
2007-02-19 10:05:21 51°13.416 2°37.234 15.1 12.5 6 7.6
2007-02-19 10:06:21 51°13.624 2°37.155 352.5 14.2 344 14.5
2007-02-19 10:07:21 51°13.845 2°37.072 357 13.3 347 19.6
2007-02-19 10:08:21 51°14.059 2°36.993 357.2 13.2 347 16.3
2007-02-19 10:09:21 51°14.272 2°36.921 357.8 13 349 11.9
2007-02-19 10:10:21 51°14.484 2°36.855 357.2 12.9 348 9.7
2007-02-19 10:11:21 51°14.697 2°36.785 356.3 13.2 349 9.4
2007-02-19 10:12:21 51°14.916 2°36.722 359 13.5 350 12.8
2007-02-19 10:13:21 51°15.135 2°36.663 358.7 13.2 351 14
2007-02-19 10:14:21 51°15.353 2°36.611 359.5 13.3 352 13.4
2007-02-19 10:15:21 51°15.572 2°36.564 0.7 13.2 353 15
2007-02-19 10:16:21 51°15.79 2°36.516 359.5 13.1 351 20.7
2007-02-19 10:17:21 51°16.004 2°36.458 0.4 12.9 351 26.1
2007-02-19 10:18:21 51°16.214 2°36.41 6.3 12.5 358 26.6
2007-02-19 10:19:21 51°16.371 2°36.505 45.5 7.3 42 27.6
2007-02-19 10:20:21 51°16.438 2°36.6 39.4 4.1 32 26.8
2007-02-19 10:21:21 51°16.481 2°36.651 49.5 2.5 42 26.5
2007-02-19 10:22:21 51°16.512 2°36.687 46.4 2.3 40 28
2007-02-19 10:23:21 51°16.544 2°36.729 48.5 2.6 43 26.5
2007-02-19 10:24:21 51°16.577 2°36.77 56.2 2.4 53 26.4
2007-02-19 10:25:21 51°16.608 2°36.804 37.6 2 25 26.4
2007-02-19 10:26:21 51°16.618 2°36.799 31.6 0.6 314 26.4
2007-02-19 10:27:21 51°16.623 2°36.79 41.4 0.3 298 26.4
2007-02-19 10:28:21 51°16.622 2°36.783 53.2 0.3 241 26.4
2007-02-19 10:29:21 51°16.617 2°36.775 62.5 0.6 223 26.5
2007-02-19 10:30:21 51°16.614 2°36.781 66 1.9 67 26.5
2007-02-19 10:31:21 51°16.68 2°36.779 347 7 333 26.5
2007-02-19 10:32:21 51°16.846 2°36.636 338.6 13.2 327 27.1
2007-02-19 10:33:21 51°17.019 2°36.407 327.2 13.7 315 26.8
2007-02-19 10:34:21 51°17.166 2°36.128 317.6 13.7 307 23
2007-02-19 10:35:21 51°17.305 2°35.838 318.3 13.7 308 15.8
2007-02-19 10:36:21 51°17.447 2°35.556 317.8 13.6 308 10.1
2007-02-19 10:37:21 51°17.583 2°35.264 311.8 14.2 302 14.4
2007-02-19 10:38:21 51°17.7 2°34.943 307.9 14.1 300 18.9
2007-02-19 10:39:21 51°17.818 2°34.619 308.1 14.2 300 22.5
2007-02-19 10:40:21 51°17.934 2°34.292 308.4 14.2 299 28.7
2007-02-19 10:41:21 51°18.053 2°33.967 309.3 14.2 301 27.3
2007-02-19 10:42:21 51°18.172 2°33.644 309.1 14.1 300 24.7
2007-02-19 10:43:21 51°18.287 2°33.32 308.1 14 300 19.3
2007-02-19 10:44:21 51°18.405 2°33 308.2 13.9 300 23.4
2007-02-19 10:45:21 51°18.519 2°32.678 307.6 14 299 24.6
2007-02-19 10:46:21 51°18.63 2°32.353 308.4 14 299 29.7
2007-02-19 10:47:21 51°18.743 2°32.027 308.3 14 299 31.7
2007-02-19 10:48:21 51°18.855 2°31.699 308.2 14.1 298 31.6
2007-02-19 10:49:21 51°18.965 2°31.369 309.6 14 299 30.5
2007-02-19 10:50:21 51°19.081 2°31.048 310.5 14 300 30.4
2007-02-19 10:51:21 51°19.2 2°30.729 310.5 14 301 29
2007-02-19 10:52:21 51°19.323 2°30.416 310.7 13.8 303 20.4
2007-02-19 10:53:21 51°19.448 2°30.108 310.7 13.7 303 14.5
2007-02-19 10:54:21 51°19.569 2°29.825 313.6 10.2 311 13.8
2007-02-19 10:55:21 51°19.677 2°29.757 359 5.9 351 15
2007-02-19 10:56:21 51°19.76 2°29.712 348.1 4.9 346 16.2
2007-02-19 10:57:21 51°19.823 2°29.745 41.5 4.1 37 15.5
2007-02-19 10:58:21 51°19.882 2°29.81 39.3 4.5 37 16.4
2007-02-19 10:59:21 51°19.935 2°29.897 49.7 4.6 47 15.3
2007-02-19 11:00:21 51°19.983 2°29.97 46 3.6 45 12.9
2007-02-19 11:01:22 51°20.011 2°30.027 59.5 1 65 14.9
2007-02-19 11:02:22 51°20.015 2°30.042 68.2 0.6 68 13.8
2007-02-19 11:03:21 51°20.017 2°30.054 80.7 0.5 78 12
2007-02-19 11:04:22 51°20.019 2°30.067 87.9 0.4 87 13.4
2007-02-19 11:05:21 51°20.019 2°30.088 91.4 1.7 90 14.7
2007-02-19 11:06:21 51°20.051 2°30.16 28.3 4.6 26 14.7
2007-02-19 11:07:21 51°20.197 2°30.248 27.5 12.7 27 11.4
2007-02-19 11:08:21 51°20.378 2°30.449 40.6 13.3 39 12.5
2007-02-19 11:09:21 51°20.551 2°30.673 41.3 13.5 40 13.7
2007-02-19 11:10:21 51°20.724 2°30.896 41 13.4 39 11.3
2007-02-19 11:11:21 51°20.896 2°31.117 41.1 13.2 39 13.2
2007-02-19 11:12:21 51°21.067 2°31.335 40 13.1 38 10.5
2007-02-19 11:13:21 51°21.235 2°31.549 40.6 12.9 38 14.5
2007-02-19 11:14:21 51°21.405 2°31.761 40.1 12.9 39 16.9
2007-02-19 11:15:21 51°21.574 2°31.974 40.2 13 39 20.7
2007-02-19 11:16:21 51°21.746 2°32.187 40.2 13.1 37 26.6
2007-02-19 11:17:21 51°21.919 2°32.399 39.9 13.1 37 30
2007-02-19 11:18:22 51°22.094 2°32.611 40.3 13 37 32.2
2007-02-19 11:19:22 51°22.267 2°32.82 39.7 13 38 31.6
2007-02-19 11:20:22 51°22.438 2°33.03 40.7 12.9 37 32.1
2007-02-19 11:21:21 51°22.608 2°33.234 40.3 13 37 32.5
2007-02-19 11:22:22 51°22.784 2°33.447 40.6 13 38 32.8
2007-02-19 11:23:21 51°22.953 2°33.651 40.6 13 38 32.9
2007-02-19 11:24:21 51°23.126 2°33.862 40.1 13 37 33.2
2007-02-19 11:25:22 51°23.301 2°34.075 40.1 13 37 33.5
2007-02-19 11:26:21 51°23.469 2°34.28 40.1 12.9 37 33.6
2007-02-19 11:27:21 51°23.596 2°34.55 66.7 13.1 68 34.9
2007-02-19 11:28:21 51°23.619 2°34.901 88.2 13.4 87 35.3
2007-02-19 11:29:21 51°23.628 2°35.259 88.1 13.5 87 34
2007-02-19 11:30:21 51°23.639 2°35.616 88.3 13.5 87 33.9
2007-02-19 11:31:21 51°23.687 2°35.961 72 13.3 71 32.6
2007-02-19 11:32:21 51°23.764 2°36.296 71.7 13.5 70 33
2007-02-19 11:33:22 51°23.84 2°36.639 72.8 13.5 71 30.3
2007-02-19 11:34:22 51°23.913 2°36.978 72.6 13.5 71 28
2007-02-19 11:35:22 51°23.983 2°37.32 73 13.5 71 27
2007-02-19 11:36:22 51°24.056 2°37.66 72.8 13.5 72 25.8
2007-02-19 11:37:22 51°24.136 2°37.999 69.7 13.7 69 26.7
2007-02-19 11:38:22 51°24.218 2°38.336 70.2 13.6 70 25.5
2007-02-19 11:39:22 51°24.3 2°38.672 70.1 13.6 69 28.1
2007-02-19 11:40:22 51°24.384 2°39.008 69.9 13.6 68 28.7
2007-02-19 11:41:22 51°24.467 2°39.346 70.2 13.8 68 26.3
2007-02-19 11:42:22 51°24.555 2°39.687 69.9 13.8 67 28.9
2007-02-19 11:43:22 51°24.643 2°40.029 70.8 13.9 68 28.1
2007-02-19 11:44:22 51°24.733 2°40.373 69.8 14.2 68 27.9
2007-02-19 11:45:22 51°24.822 2°40.72 71.2 14.1 68 26.8
2007-02-19 11:46:22 51°24.91 2°41.068 70.4 14.1 68 27.6
2007-02-19 11:47:22 51°25 2°41.415 70.2 14.2 67 27.6
2007-02-19 11:48:22 51°25.091 2°41.763 69.8 14.2 66 27.7
2007-02-19 11:49:22 51°25.176 2°42.114 72.1 14.1 70 27.6
2007-02-19 11:50:22 51°25.247 2°42.472 76.3 14.2 73 27
2007-02-19 11:51:22 51°25.313 2°42.835 76.9 14.3 74 24.4
2007-02-19 11:52:22 51°25.38 2°43.2 76.2 14.3 74 26.1
2007-02-19 11:53:22 51°25.449 2°43.563 76.2 14.3 73 25.1
2007-02-19 11:54:22 51°25.517 2°43.927 76.9 14.2 74 22
2007-02-19 11:55:22 51°25.584 2°44.291 77.1 14.3 74 26.3
2007-02-19 11:56:22 51°25.65 2°44.655 77.2 14.3 74 25.5
2007-02-19 11:57:22 51°25.718 2°45.019 75.9 14.3 74 27.3
2007-02-19 11:58:22 51°25.786 2°45.381 76.4 14.2 73 27.7
2007-02-19 11:59:22 51°25.854 2°45.747 76.8 14.3 73 28
2007-02-19 12:00:22 51°25.923 2°46.111 76.3 14.4 73 26.9
2007-02-19 12:01:22 51°25.991 2°46.478 78.5 14.4 76 27
2007-02-19 12:02:22 51°26.051 2°46.851 79.2 14.4 75 26.3
2007-02-19 12:03:22 51°26.106 2°47.226 82.8 14.5 80 24.8
2007-02-19 12:04:22 51°26.137 2°47.608 87 14.5 83 23.4
2007-02-19 12:05:22 51°26.155 2°47.993 90.4 14.5 86 22.4
2007-02-19 12:06:22 51°26.155 2°48.378 97.8 14.5 95 21.4
2007-02-19 12:07:22 51°26.121 2°48.683 119.8 8.4 119 26.2
2007-02-19 12:08:22 51°26.045 2°48.746 199.2 3.9 188 26
2007-02-19 12:09:22 51°26.019 2°48.685 273.5 3.1 276 26.1
2007-02-19 12:10:21 51°26.02 2°48.596 258.6 3.4 256 26.3
2007-02-19 12:11:21 51°26.007 2°48.531 252.5 2 249 25.8
2007-02-19 12:12:22 51°25.999 2°48.497 249.6 0.8 248 25.8
2007-02-19 12:13:22 51°25.998 2°48.493 240.9 0.1 149 26
2007-02-19 12:14:22 51°25.999 2°48.499 239.5 0.4 57 25.8
2007-02-19 12:15:22 51°26.005 2°48.512 242.5 0.6 53 25.8
2007-02-19 12:16:22 51°26.011 2°48.525 243.1 0.1 353 26
2007-02-19 12:17:22 51°25.982 2°48.529 183.2 3.7 156 26.2
2007-02-19 12:18:22 51°25.959 2°48.652 83.4 6.2 75 26.6
2007-02-19 12:19:21 51°26.02 2°48.921 75.7 14.2 71 25.9
2007-02-19 12:20:21 51°26.075 2°49.308 83.8 15.1 79 25.8
2007-02-19 12:21:21 51°26.124 2°49.703 82.4 15.2 78 25.6
2007-02-19 12:22:22 51°26.179 2°50.104 81.6 15.1 77 26
2007-02-19 12:23:22 51°26.235 2°50.498 82.1 15.2 78 25.7
2007-02-19 12:24:21 51°26.291 2°50.89 82.4 15.5 78 26
2007-02-19 12:25:21 51°26.354 2°51.289 80.3 15.3 75 29.2
2007-02-19 12:26:21 51°26.419 2°51.683 80.2 15.4 75 28.8
2007-02-19 12:27:21 51°26.485 2°52.078 81 15.3 77 28.1
2007-02-19 12:28:21 51°26.551 2°52.471 78.1 15.4 73 29.7
2007-02-19 12:29:21 51°26.628 2°52.86 77.3 15.4 73 31
2007-02-19 12:30:21 51°26.706 2°53.25 76.9 15.2 72 33.2
2007-02-19 12:31:21 51°26.786 2°53.635 76.2 15.1 70 31.6
2007-02-19 12:32:21 51°26.868 2°54.013 77.1 15 71 28
2007-02-19 12:33:21 51°26.952 2°54.393 77.9 15.2 71 27.4
2007-02-19 12:34:21 51°27.033 2°54.774 77.3 15.1 71 30.6
2007-02-19 12:35:21 51°27.114 2°55.153 77.8 15.1 72 30.6
2007-02-19 12:36:22 51°27.19 2°55.543 78.7 15 72 31.8
2007-02-19 12:37:21 51°27.266 2°55.917 77.7 15 71 31.1
2007-02-19 12:38:21 51°27.344 2°56.301 78.2 15.1 72 30.6
2007-02-19 12:39:21 51°27.426 2°56.683 75.3 15.3 67 26.7
2007-02-19 12:40:22 51°27.564 2°57.037 59.7 15.5 55 30.1
2007-02-19 12:41:22 51°27.708 2°57.375 60.3 15.4 56 30.7
2007-02-19 12:42:21 51°27.841 2°57.716 68.4 15.3 64 30.6
2007-02-19 12:43:22 51°27.909 2°58.109 89.8 15 84 29.7
2007-02-19 12:44:22 51°27.936 2°58.508 86.7 15.2 79 28
2007-02-19 12:45:22 51°27.988 2°58.907 83.8 15.5 78 23.7
2007-02-19 12:46:22 51°28.04 2°59.309 83.9 15.4 78 22.9
2007-02-19 12:47:22 51°28.091 2°59.712 84 15.4 79 22.5
2007-02-19 12:48:22 51°28.143 3°0.115 83 15.5 78 22.2
2007-02-19 12:49:22 51°28.195 3°0.518 82.7 15.4 77 23.5
2007-02-19 12:50:22 51°28.248 3°0.92 84 15.5 79 24.2
2007-02-19 12:51:22 51°28.292 3°1.326 86.1 15.5 80 24.8
2007-02-19 12:52:22 51°28.336 3°1.733 86.3 15.5 80 24.9
2007-02-19 12:53:22 51°28.382 3°2.141 85.7 15.6 80 26.4
2007-02-19 12:54:22 51°28.421 3°2.548 87.8 15.5 83 26.4
2007-02-19 12:55:22 51°28.443 3°2.957 94 15.3 87 26.4
2007-02-19 12:56:22 51°28.453 3°3.342 97 12.7 89 26.1
2007-02-19 12:57:22 51°28.46 3°3.646 96.6 10 88 25.7
2007-02-19 12:58:22 51°28.42 3°3.814 160.5 4.6 139 25
2007-02-19 12:59:22 51°28.377 3°3.822 231.9 2.1 226 24.8
2007-02-19 13:00:22 51°28.364 3°3.751 244.2 3.2 240 24.9
2007-02-19 13:01:22 51°28.333 3°3.666 249 4 246 25
2007-02-19 13:02:22 51°28.306 3°3.576 256.5 3.1 262 25.1
2007-02-19 13:03:22 51°28.29 3°3.531 234.2 1.6 236 25.3
2007-02-19 13:04:22 51°28.279 3°3.501 229.1 1.1 215 25.5
2007-02-19 13:05:22 51°28.271 3°3.481 250.6 0.6 308 25.4
2007-02-19 13:06:22 51°28.285 3°3.489 255.3 1 25 25.5
2007-02-19 13:07:21 51°28.303 3°3.503 256.1 1.3 31 25.4
2007-02-19 13:08:22 51°28.322 3°3.524 256.2 1.5 36 25.5
2007-02-19 13:09:22 51°28.342 3°3.549 256.4 1.6 38 25.6
2007-02-19 13:10:22 51°28.358 3°3.563 245.7 0.3 309 25.5
2007-02-19 13:11:22 51°28.332 3°3.582 172.7 3.5 134 25.5
2007-02-19 13:12:22 51°28.286 3°3.771 125.2 12.1 114 24.6
2007-02-19 13:13:21 51°28.173 3°4.087 130.9 14.4 121 22.5
2007-02-19 13:14:21 51°28.049 3°4.415 131 14.4 121 20.2
2007-02-19 13:15:22 51°27.92 3°4.749 131.7 14.6 122 17.7
2007-02-19 13:16:21 51°27.796 3°5.079 130 14.7 120 16.4
2007-02-19 13:17:21 51°27.671 3°5.414 129.7 14.7 120 17.6
2007-02-19 13:18:21 51°27.551 3°5.756 128.4 14.7 120 17.2
2007-02-19 13:19:21 51°27.433 3°6.099 128.1 14.7 119 16.9
2007-02-19 13:20:21 51°27.32 3°6.448 125.8 14.7 117 16.6
2007-02-19 13:21:21 51°27.205 3°6.792 127.7 14.6 119 15.8
2007-02-19 13:22:21 51°27.09 3°7.134 127 14.6 118 15.2
2007-02-19 13:23:21 51°26.97 3°7.471 128.9 14.6 121 14.5
2007-02-19 13:24:21 51°26.851 3°7.809 127.7 14.6 119 14.1
2007-02-19 13:25:21 51°26.732 3°8.149 128.7 14.6 119 14.4
2007-02-19 13:26:21 51°26.612 3°8.486 128.2 14.6 120 14.1
2007-02-19 13:27:21 51°26.491 3°8.8 139.8 10.9 140 13.6
2007-02-19 13:28:21 51°26.402 3°8.81 232.5 3.3 225 13.6
2007-02-19 13:29:21 51°26.415 3°8.709 282.2 5 283 13.7
2007-02-19 13:30:21 51°26.432 3°8.565 287.7 5.1 294 13.9
2007-02-19 13:31:21 51°26.439 3°8.474 265.2 2.9 274 14
2007-02-19 13:32:21 51°26.444 3°8.407 255.1 2.1 261 13.8
2007-02-19 13:33:21 51°26.447 3°8.35 272.8 2.4 286 13.7
2007-02-19 13:34:21 51°26.456 3°8.314 268.6 0.7 7 13.7
2007-02-19 13:35:21 51°26.47 3°8.319 277.9 1 17 13.8
2007-02-19 13:36:21 51°26.487 3°8.329 280 1.1 26 13.9
2007-02-19 13:37:21 51°26.503 3°8.34 279.4 1.1 341 14
2007-02-19 13:38:21 51°26.49 3°8.314 212.5 2.7 183 13.9
2007-02-19 13:39:21 51°26.427 3°8.394 149.4 8.6 137 13.7
2007-02-19 13:40:21 51°26.314 3°8.675 122.3 14.2 113 13.1
2007-02-19 13:41:21 51°26.242 3°9.043 109.4 14.7 102 12.5
2007-02-19 13:42:21 51°26.19 3°9.426 111.9 14.7 105 11.9
2007-02-19 13:43:21 51°26.127 3°9.805 113.6 14.7 106 11.6
2007-02-19 13:44:21 51°26.062 3°10.182 113 14.7 106 11.3
2007-02-19 13:45:21 51°25.994 3°10.559 113.3 14.7 105 11.1
2007-02-19 13:46:21 51°25.932 3°10.937 112.5 14.6 106 10.8
2007-02-19 13:47:21 51°25.87 3°11.314 111 14.6 105 10.7
2007-02-19 13:48:21 51°25.805 3°11.687 111.7 14.6 105 10.4
2007-02-19 13:49:21 51°25.749 3°12.064 104.7 14.6 98 10.2
2007-02-19 13:50:21 51°25.742 3°12.454 93.9 14.8 88 10.1
2007-02-19 13:51:22 51°25.749 3°12.854 93 14.8 88 10.1
2007-02-19 13:52:22 51°25.753 3°13.249 94.8 14.8 89 10.3
2007-02-19 13:53:22 51°25.773 3°13.641 86.3 14.8 81 10.5
2007-02-19 13:54:22 51°25.811 3°14.028 86.1 14.7 81 10.5
2007-02-19 13:55:22 51°25.848 3°14.415 86.6 14.7 82 10.7
2007-02-19 13:56:22 51°25.882 3°14.804 87 14.8 82 10.7
2007-02-19 13:57:22 51°25.914 3°15.193 86.6 14.7 83 10.6
2007-02-19 13:58:22 51°25.946 3°15.579 87.3 14.6 82 10.5
2007-02-19 13:59:22 51°25.979 3°15.966 87.5 14.6 82 10.5
2007-02-19 14:00:22 51°26.012 3°16.354 87.2 14.7 82 10.5
2007-02-19 14:01:22 51°26.046 3°16.743 87.2 14.7 82 11.2
2007-02-19 14:02:22 51°26.067 3°17.132 91.6 14.7 86 11
2007-02-19 14:03:22 51°26.082 3°17.524 92.2 14.8 87 11.2
2007-02-19 14:04:22 51°26.095 3°17.917 92.3 14.3 87 11.5
2007-02-19 14:05:22 51°26.052 3°18.138 150.4 5.8 139 12
2007-02-19 14:06:22 51°25.989 3°18.152 222.6 3.1 213 11.9
2007-02-19 14:07:22 51°25.971 3°18.07 251.8 3.8 246 12.2
2007-02-19 14:08:21 51°25.942 3°17.967 255.4 4.6 252 12
2007-02-19 14:09:21 51°25.917 3°17.873 256.4 3.2 255 11.9
2007-02-19 14:10:21 51°25.909 3°17.81 255.1 1.7 258 11.9
2007-02-19 14:11:22 51°25.908 3°17.79 260 0.2 333 11.9
2007-02-19 14:12:21 51°25.915 3°17.789 266.9 0.4 4 11.9
2007-02-19 14:13:21 51°25.923 3°17.792 265.6 0.5 20 11.9
2007-02-19 14:14:21 51°25.928 3°17.789 252.6 0.9 266 11.9
2007-02-19 14:15:21 51°25.93 3°17.715 254.3 3.6 245 11.8
2007-02-19 14:16:22 51°25.852 3°17.711 174.7 7.6 164 11.9
2007-02-19 14:17:21 51°25.664 3°17.735 190.2 12.9 183 12.5
2007-02-19 14:18:21 51°25.45 3°17.718 191.6 12.8 183 12.9
2007-02-19 14:19:21 51°25.237 3°17.693 191.8 13 184 13.8
2007-02-19 14:20:21 51°25.018 3°17.678 191.1 13.2 182 16.3
2007-02-19 14:21:21 51°24.798 3°17.664 189.1 13.3 175 19.1
2007-02-19 14:22:21 51°24.58 3°17.682 192.9 12.9 181 20.8
2007-02-19 14:23:21 51°24.369 3°17.652 191.5 12.9 185 21
2007-02-19 14:24:21 51°24.149 3°17.635 191.3 13.2 183 17.3
2007-02-19 14:25:21 51°23.931 3°17.618 190.7 13.2 182 15.6
2007-02-19 14:26:21 51°23.744 3°17.524 233.7 11.1 234 14.5
2007-02-19 14:27:21 51°23.673 3°17.239 251.9 11.9 249 14.2
2007-02-19 14:28:21 51°23.598 3°16.944 250.9 12 248 13.4
2007-02-19 14:29:21 51°23.521 3°16.651 251.8 11.9 248 12.7
2007-02-19 14:30:21 51°23.446 3°16.357 251.8 11.9 247 12.1
2007-02-19 14:31:21 51°23.373 3°16.062 252.2 11.9 249 11.8
2007-02-19 14:32:21 51°23.3 3°15.776 252.4 11.5 248 11.7
2007-02-19 14:33:21 51°23.226 3°15.495 251.8 11.4 248 11.8
2007-02-19 14:34:21 51°23.154 3°15.212 252.4 11.5 248 12
2007-02-19 14:35:21 51°23.081 3°14.928 251.9 11.6 248 12.1
2007-02-19 14:36:21 51°23.008 3°14.643 250.9 11.6 247 12.2
2007-02-19 14:37:21 51°22.93 3°14.361 251.2 11.5 246 12.6
2007-02-19 14:38:21 51°22.854 3°14.078 251.6 11.6 247 13.1
2007-02-19 14:39:21 51°22.779 3°13.805 248.7 10.4 244 13.5
2007-02-19 14:40:21 51°22.709 3°13.56 250.7 10 246 14.1
2007-02-19 14:41:21 51°22.652 3°13.392 243.8 4.8 238 14.8
2007-02-19 14:42:21 51°22.623 3°13.286 250.9 3.5 245 15
2007-02-19 14:43:21 51°22.606 3°13.218 256.9 2.1 255 15.2
2007-02-19 14:44:22 51°22.599 3°13.2 260.6 0.4 63 15.3
2007-02-19 14:45:21 51°22.608 3°13.214 277.4 0.9 47 15.3
2007-02-19 14:46:21 51°22.619 3°13.235 277.9 1.1 53 15.1
2007-02-19 14:47:21 51°22.631 3°13.261 276 1.3 53 15.1
2007-02-19 14:48:21 51°22.624 3°13.239 244 2.5 234 15.1
2007-02-19 14:49:21 51°22.598 3°13.088 266.3 9.4 267 15.3
2007-02-19 14:50:21 51°22.59 3°12.794 265.4 11.6 264 15.9
2007-02-19 14:51:21 51°22.57 3°12.486 263.2 11.7 262 16.4
2007-02-19 14:52:21 51°22.515 3°12.191 251.7 11.6 249 17.1
2007-02-19 14:53:21 51°22.448 3°11.899 252.3 11.8 250 18
2007-02-19 14:54:21 51°22.383 3°11.602 251.7 11.9 251 18.4
2007-02-19 14:55:22 51°22.316 3°11.297 251.8 12.1 251 18.8
2007-02-19 14:56:21 51°22.256 3°10.996 255.8 12.1 256 19.7
2007-02-19 14:57:21 51°22.215 3°10.678 257.6 12.4 256 21.5
2007-02-19 14:58:21 51°22.174 3°10.358 257.8 12.2 258 17.5
2007-02-19 14:59:22 51°22.132 3°10.035 257.4 12.3 256 16.8
2007-02-19 15:00:21 51°22.094 3°9.718 260.1 12.3 260 16
2007-02-19 15:01:21 51°22.063 3°9.393 262.4 12.3 263 15.5
2007-02-19 15:02:21 51°22.037 3°9.07 262.7 12.3 263 15
2007-02-19 15:03:22 51°22.009 3°8.742 261.6 12.3 261 14.6
2007-02-19 15:04:21 51°21.981 3°8.421 262.7 12.4 263 14.4
2007-02-19 15:05:21 51°21.955 3°8.094 263.1 12.4 262 14.3
2007-02-19 15:06:21 51°21.925 3°7.769 261.8 12.3 261 14.3
2007-02-19 15:07:21 51°21.896 3°7.446 261.8 12.2 261 14.3
2007-02-19 15:08:21 51°21.857 3°7.131 259 12.1 257 14.2
2007-02-19 15:09:21 51°21.816 3°6.815 259.7 12.1 258 14
2007-02-19 15:10:21 51°21.773 3°6.5 258.8 12.1 258 13.9
2007-02-19 15:11:21 51°21.733 3°6.185 258.9 12 258 13.8
2007-02-19 15:12:21 51°21.692 3°5.869 257.2 12.1 255 13.7
2007-02-19 15:13:21 51°21.638 3°5.559 254.6 12.1 254 13.7
2007-02-19 15:14:21 51°21.584 3°5.249 255.3 12.1 255 13.7
2007-02-19 15:15:21 51°21.531 3°4.938 254.9 12.1 255 13.6
2007-02-19 15:16:21 51°21.477 3°4.628 254.8 12.1 254 13.6
2007-02-19 15:17:21 51°21.425 3°4.319 254.1 12 254 13.5
2007-02-19 15:18:21 51°21.368 3°4.011 253.9 12.1 254 13.4
2007-02-19 15:19:21 51°21.311 3°3.702 253.5 12.1 253 13.5
2007-02-19 15:20:21 51°21.254 3°3.392 253.4 12.2 252 13.3
2007-02-19 15:21:21 51°21.192 3°3.083 252.7 12.1 252 13.3
2007-02-19 15:22:21 51°21.133 3°2.774 253.1 12.3 253 13.2
2007-02-19 15:23:21 51°21.074 3°2.464 253.6 12.1 253 13.2
2007-02-19 15:24:21 51°21.009 3°2.166 251.3 11.9 251 13.2
2007-02-19 15:25:21 51°20.944 3°1.862 251.8 12.1 252 13.1
2007-02-19 15:26:21 51°20.878 3°1.557 251.8 12.2 250 13
2007-02-19 15:27:21 51°20.809 3°1.253 250.4 12.1 250 13.1
2007-02-19 15:28:21 51°20.743 3°0.945 250.6 12.3 251 13
2007-02-19 15:29:21 51°20.676 3°0.638 251.8 12.2 251 13
2007-02-19 15:30:21 51°20.612 3°0.33 250.7 12.1 249 13
2007-02-19 15:31:21 51°20.537 3°0.029 248.3 12.3 248 13
2007-02-19 15:32:21 51°20.464 2°59.721 249.1 12.3 249 13.1
2007-02-19 15:33:21 51°20.393 2°59.414 249.4 12.3 250 13.1
2007-02-19 15:34:21 51°20.322 2°59.106 249.8 12.3 251 13.3
2007-02-19 15:35:21 51°20.252 2°58.8 249.6 12.2 251 13.1
2007-02-19 15:36:21 51°20.183 2°58.495 249.4 12.2 250 13.1
2007-02-19 15:37:21 51°20.113 2°58.19 249.6 12.3 250 13.2
2007-02-19 15:38:21 51°20.043 2°57.883 248.9 12.4 249 13.2
2007-02-19 15:39:21 51°19.972 2°57.574 249.6 12.4 251 13.2
2007-02-19 15:40:21 51°19.898 2°57.263 249.9 12.6 250 13.3
2007-02-19 15:41:21 51°19.829 2°56.949 251.1 12.6 251 13.4
2007-02-19 15:42:21 51°19.76 2°56.635 250.7 12.4 250 13.5
2007-02-19 15:43:21 51°19.688 2°56.322 249.9 12.6 250 13.5
2007-02-19 15:44:21 51°19.614 2°56.01 249.2 12.6 249 13.6
2007-02-19 15:45:21 51°19.539 2°55.698 249.9 12.5 250 13.8
2007-02-19 15:46:21 51°19.467 2°55.386 249 12.6 249 14
2007-02-19 15:47:21 51°19.397 2°55.074 250.2 12.5 251 14
2007-02-19 15:48:21 51°19.328 2°54.761 251 12.5 251 14
2007-02-19 15:49:21 51°19.258 2°54.449 250.4 12.5 251 14.1
2007-02-19 15:50:21 51°19.188 2°54.136 250.2 12.5 251 14.1
2007-02-19 15:51:21 51°19.118 2°53.822 250.4 12.5 251 14
2007-02-19 15:52:21 51°19.048 2°53.508 250.1 12.5 250 13.9
2007-02-19 15:53:21 51°18.978 2°53.195 249.8 12.5 249 13.9
2007-02-19 15:54:21 51°18.907 2°52.882 249.6 12.6 251 14
2007-02-19 15:55:21 51°18.839 2°52.565 250.4 12.7 251 14.2
2007-02-19 15:56:21 51°18.768 2°52.249 249.6 12.6 250 14.5
2007-02-19 15:57:21 51°18.711 2°51.975 251.1 9.8 252 15
2007-02-19 15:58:21 51°18.666 2°51.752 249.1 7.3 252 15.4
2007-02-19 15:59:21 51°18.639 2°51.617 243.5 4 249 15.6
2007-02-19 16:00:21 51°18.618 2°51.524 245.9 3.5 252 15.7
2007-02-19 16:01:21 51°18.597 2°51.441 240.3 3.4 249 15.8
2007-02-19 16:02:21 51°18.578 2°51.355 240.3 3.5 248 15.8
2007-02-19 16:03:21 51°18.553 2°51.258 244.6 4.4 253 15.8
2007-02-19 16:04:21 51°18.531 2°51.146 238.2 4.3 244 15.9
2007-02-19 16:05:21 51°18.507 2°51.036 253.8 4.1 264 15.9
2007-02-19 16:06:21 51°18.516 2°50.962 276.8 1.7 318 15.9
2007-02-19 16:07:21 51°18.535 2°50.967 313.3 1.3 20 15.9
2007-02-19 16:08:21 51°18.557 2°50.979 326.2 1.5 20 16
2007-02-19 16:09:21 51°18.581 2°50.99 327.7 1.6 17 15.9
2007-02-19 16:10:21 51°18.613 2°50.977 292.5 2.7 311 16.1
2007-02-19 16:11:21 51°18.603 2°50.917 211.2 3.1 201 16.1
2007-02-19 16:12:21 51°18.543 2°50.995 140 8.4 129 15.8
2007-02-19 16:13:21 51°18.392 2°51.191 157 12.6 153 14.9
2007-02-19 16:14:21 51°18.195 2°51.303 167.3 12.6 161 13.9
2007-02-19 16:15:22 51°17.991 2°51.411 167.1 12.7 162 12.8
2007-02-19 16:16:22 51°17.79 2°51.516 167.4 12.6 162 11.6
2007-02-19 16:17:22 51°17.589 2°51.622 166.8 12.7 162 11.4
2007-02-19 16:18:22 51°17.39 2°51.737 162.9 12.8 153 12.3
2007-02-19 16:19:22 51°17.243 2°51.982 131.6 13.1 123 12.5
2007-02-19 16:20:22 51°17.144 2°52.298 122.8 13.4 116 11.8
2007-02-19 16:21:22 51°17.046 2°52.618 123.1 13.5 116 11.3
2007-02-19 16:22:22 51°16.946 2°52.935 124.3 13.3 117 10.5
2007-02-19 16:23:22 51°16.845 2°53.251 124.8 13.7 117 11.7
2007-02-19 16:24:22 51°16.738 2°53.569 125.3 13.6 118 12.8
2007-02-19 16:25:22 51°16.628 2°53.884 126.5 13.5 120 13
2007-02-19 16:26:22 51°16.52 2°54.198 125.8 13.6 118 12.9
2007-02-19 16:27:22 51°16.411 2°54.508 126 12.4 121 12.9
2007-02-19 16:28:22 51°16.308 2°54.551 215 4.6 217 12.9
2007-02-19 16:29:22 51°16.288 2°54.451 257 3.6 257 12.8
2007-02-19 16:30:22 51°16.269 2°54.376 252.7 2.9 257 12.9
2007-02-19 16:31:22 51°16.254 2°54.309 239.2 2.3 243 12.8
2007-02-19 16:32:22 51°16.249 2°54.284 247.9 0.5 356 12.8
2007-02-19 16:33:22 51°16.258 2°54.284 265.6 0.6 357 12.8
2007-02-19 16:34:22 51°16.269 2°54.282 275 0.8 356 4.6
2007-02-19 16:35:22 51°16.282 2°54.279 275.4 0.9 322 12.7
2007-02-19 16:36:22 51°16.244 2°54.195 214.1 7.7 206 12.6
2007-02-19 16:37:22 51°16.069 2°54.201 178 12.6 173 12.4
2007-02-19 16:38:22 51°15.855 2°54.243 175.5 13.1 173 11.9
2007-02-19 16:39:22 51°15.639 2°54.293 174.2 13.2 170 11.3
2007-02-19 16:40:22 51°15.425 2°54.359 171.2 13 168 10.5
2007-02-19 16:41:22 51°15.211 2°54.429 171.2 13.1 167 10.1
2007-02-19 16:42:22 51°15.003 2°54.524 167.7 13.1 165 9.7
2007-02-19 16:43:22 51°14.792 2°54.62 165 13.2 161 10.5
2007-02-19 16:44:22 51°14.594 2°54.768 154.6 13.1 151 10.5
2007-02-19 16:45:22 51°14.416 2°54.968 141 13.1 135 11.8
2007-02-19 16:46:22 51°14.277 2°55.231 134.2 12.8 132 11.7
2007-02-19 16:47:22 51°14.134 2°55.4 157.5 9.5 155 12.3
2007-02-19 16:48:22 51°14.008 2°55.494 159.2 7.7 156 12
2007-02-19 16:49:22 51°13.895 2°55.577 158 7.3 154 12.1
2007-02-19 16:50:22 51°13.79 2°55.668 150.1 7.1 145 12.2
2007-02-19 16:51:22 51°13.703 2°55.793 137 6.5 133 12.7
2007-02-19 16:52:22 51°13.649 2°55.911 125.9 4.9 122 11.4
2007-02-19 16:53:22 51°13.617 2°56.008 118.6 3.7 114 11.3
2007-02-19 16:54:22 51°13.602 2°56.079 114.4 1.7 106 9.5
2007-02-19 16:55:22 51°13.599 2°56.093 121.6 0.3 124 7.8